Time;durP1;ratioP1;P1;durP2;ratioP2;P2;SDS_P1;SDS_P2;PMS_P1;PMS_P2;Temp;Humidity;BMP_temperature;BMP_pressure;BME280_temperature;BME280_humidity;BME280_pressure;Samples;Min_cycle;Max_cycle;Signal;HPM_P1;HPM_P2
2021/12/03 03:10:40;;;;;;;;;13.00;10.00;;;;;4.73;65.38;101168.31;5551455;22;45153;-94
2021/12/03 03:13:05;;;;;;;;;8.25;8.25;;;;;4.68;65.13;101154.97;5007080;28;44823;-96
2021/12/03 07:23:28;;;;;;;;;5.33;3.00;;;;;5.33;61.62;101013.13;5668676;23;45369;-96
2021/12/03 07:25:53;;;;;;;;;1.00;1.00;;;;;5.55;61.43;101044.94;4993900;23;47328;-81
2021/12/03 07:28:19;;;;;;;;;2.00;1.33;;;;;5.56;61.43;101051.97;4974875;28;45357;-82
2021/12/03 07:30:44;;;;;;;;;2.00;1.67;;;;;5.55;61.36;101050.16;4988103;28;45489;-82
2021/12/03 07:33:13;;;;;;;;;1.67;1.00;;;;;5.58;60.92;101055.59;4988271;28;45389;-83
2021/12/03 07:35:39;;;;;;;;;4.25;2.00;;;;;5.56;61.33;101046.78;4992047;28;45578;-83
2021/12/03 07:38:04;;;;;;;;;2.25;2.25;;;;;5.58;60.34;101055.59;4993346;28;45457;-83
2021/12/03 07:40:30;;;;;;;;;5.00;5.00;;;;;5.57;61.17;101045.97;4969270;28;45385;-83
2021/12/03 07:42:56;;;;;;;;;6.00;3.00;;;;;5.62;60.60;101048.91;4995967;28;45656;-82
2021/12/03 07:45:21;;;;;;;;;1.33;1.00;;;;;5.62;61.07;101044.59;4974414;28;47456;-82
2021/12/03 07:47:47;;;;;;;;;3.00;2.33;;;;;5.63;60.77;101054.22;4969646;28;45989;-83
2021/12/03 07:50:14;;;;;;;;;6.67;5.33;;;;;5.70;61.25;101055.53;4991623;28;45642;-83
2021/12/03 07:52:39;;;;;;;;;6.33;1.67;;;;;5.70;60.36;101052.94;4973783;28;45804;-84
2021/12/03 07:55:06;;;;;;;;;2.00;2.00;;;;;5.72;60.56;101050.47;4969047;28;47183;-84
2021/12/03 07:57:31;;;;;;;;;3.67;2.00;;;;;5.70;61.22;101039.91;4972209;28;45575;-84
2021/12/03 07:59:57;;;;;;;;;5.33;3.00;;;;;5.79;60.99;101045.78;4974701;28;45390;-84
2021/12/03 08:02:23;;;;;;;;;3.00;3.00;;;;;5.82;61.33;101047.72;4993077;28;45270;-84
2021/12/03 08:04:49;;;;;;;;;2.33;2.33;;;;;5.85;60.91;101047.88;4993558;28;46376;-82
2021/12/03 08:07:14;;;;;;;;;5.33;3.00;;;;;5.87;60.49;101048.03;4990009;28;45805;-83
2021/12/03 08:09:40;;;;;;;;;2.33;1.67;;;;;5.88;60.53;101048.13;4992444;28;45414;-82
2021/12/03 08:12:08;;;;;;;;;2.67;2.00;;;;;5.93;60.73;101048.44;4986175;28;45805;-83
2021/12/03 08:14:33;;;;;;;;;3.00;3.00;;;;;5.95;60.93;101038.13;4973693;28;46654;-83
2021/12/03 08:16:59;;;;;;;;;3.00;3.00;;;;;6.03;59.36;101042.19;4973921;28;45494;-83
2021/12/03 08:19:24;;;;;;;;;2.33;2.00;;;;;6.08;59.74;101053.81;4985661;28;45433;-83
2021/12/03 08:21:49;;;;;;;;;5.00;5.00;;;;;6.08;60.27;101037.31;4987851;28;45437;-83
2021/12/03 08:24:15;;;;;;;;;5.00;2.33;;;;;6.11;59.65;101035.78;4994754;28;46146;-83
2021/12/03 08:26:40;;;;;;;;;3.00;2.00;;;;;6.20;59.69;101037.22;4988085;28;45451;-83
2021/12/03 08:29:06;;;;;;;;;3.00;2.50;;;;;6.21;59.81;101042.53;4996997;28;45435;-82
2021/12/03 08:31:33;;;;;;;;;1.00;1.00;;;;;6.24;59.40;101045.34;4981356;28;45351;-83
2021/12/03 08:33:58;;;;;;;;;2.67;1.67;;;;;6.30;60.29;101041.34;4975926;28;47717;-82
2021/12/03 08:36:23;;;;;;;;;3.33;3.33;;;;;6.37;58.35;101044.47;4993911;28;45437;-82
2021/12/03 08:38:49;;;;;;;;;5.33;4.33;;;;;6.35;59.83;101030.44;4984443;28;45421;-82
2021/12/03 08:41:17;;;;;;;;;8.33;3.00;;;;;6.40;59.69;101041.19;5000016;28;45336;-81
2021/12/03 08:43:45;;;;;;;;;5.00;5.00;;;;;6.44;58.68;101039.69;4997421;28;45527;-82
2021/12/03 08:46:18;;;;;;;;;6.33;2.00;;;;;6.46;58.71;101033.78;4985141;28;45598;-82
2021/12/03 08:48:47;;;;;;;;;2.00;2.00;;;;;6.43;58.15;101044.00;5002909;28;45651;-84
2021/12/03 08:56:29;;;;;;;;;7.00;3.33;;;;;6.48;59.18;101057.34;5007509;28;45307;-82
2021/12/03 08:58:55;;;;;;;;;3.33;3.00;;;;;6.53;59.53;101050.72;5012124;28;45335;-82
2021/12/03 09:01:20;;;;;;;;;3.00;3.00;;;;;6.57;58.70;101042.28;4986744;28;45480;-82
2021/12/03 09:03:46;;;;;;;;;6.00;3.33;;;;;6.60;58.53;101046.81;5002844;28;46070;-83
2021/12/03 09:06:11;;;;;;;;;6.00;5.00;;;;;6.61;58.50;101046.03;4989345;28;45636;-83
2021/12/03 09:08:36;;;;;;;;;5.00;3.00;;;;;6.61;58.78;101051.25;4987555;28;45420;-83
2021/12/03 09:11:02;;;;;;;;;7.25;5.00;;;;;6.65;58.43;101050.63;4994463;28;45359;-83
2021/12/03 09:13:28;;;;;;;;;2.00;2.00;;;;;6.67;58.46;101049.06;4993834;28;46773;-83
2021/12/03 09:16:09;;;;;;;;;2.67;2.67;;;;;6.66;58.75;101043.72;4989205;28;45294;-83
2021/12/03 09:18:45;;;;;;;;;5.00;3.00;;;;;6.64;57.91;101022.75;4971857;28;45554;-83
2021/12/03 09:21:18;;;;;;;;;6.50;5.50;;;;;6.56;57.92;101022.25;4972045;28;45735;-83
2021/12/03 09:23:56;;;;;;;;;5.00;3.67;;;;;6.55;59.14;101024.75;4994208;28;45584;-83
2021/12/03 09:26:24;;;;;;;;;4.75;4.75;;;;;6.54;59.07;101016.03;4997358;28;45573;-83
2021/12/03 09:28:57;;;;;;;;;6.00;4.67;;;;;6.66;58.71;101015.03;4971914;28;45660;-83
2021/12/03 09:31:23;;;;;;;;;12.00;6.00;;;;;6.68;58.83;101010.81;4975766;28;45519;-83
2021/12/03 09:33:49;;;;;;;;;4.00;4.00;;;;;6.69;59.04;101002.19;4994878;28;46283;-82
2021/12/03 09:36:15;;;;;;;;;3.00;3.00;;;;;6.72;59.93;101004.09;4995422;28;45717;-82
2021/12/03 09:38:40;;;;;;;;;8.33;5.00;;;;;6.75;58.95;100996.47;4988241;28;45843;-83
2021/12/03 09:41:06;;;;;;;;;6.00;3.00;;;;;6.73;59.44;101000.66;4996460;28;45777;-83
2021/12/03 09:43:39;;;;;;;;;4.00;4.00;;;;;6.65;59.39;100995.84;4976539;28;47942;-82
2021/12/03 09:46:14;;;;;;;;;4.67;3.00;;;;;6.68;59.73;101000.38;4987464;28;45567;-83
2021/12/03 09:51:29;;;;;;;;;4.33;2.33;;;;;6.60;59.79;100981.59;4994643;28;45604;-84
2021/12/03 09:54:21;;;;;;;;;6.33;3.00;;;;;6.61;59.82;100985.13;4997494;28;47564;-83
2021/12/03 09:56:47;;;;;;;;;6.00;3.00;;;;;6.57;60.58;100994.47;4967043;28;45469;-83
2021/12/03 10:08:10;;;;;;;;;10.00;5.00;;;;;6.42;62.08;100995.25;5001642;28;45264;-83
2021/12/03 10:15:21;;;;;;;;;5.00;5.00;;;;;6.31;62.68;100986.72;4992642;28;45186;-84
2021/12/03 10:18:18;;;;;;;;;5.00;5.00;;;;;6.23;63.63;100975.78;4998731;28;45524;-84
2021/12/03 10:20:50;;;;;;;;;4.00;4.00;;;;;6.21;64.44;100964.31;4958492;28;45513;-84
2021/12/03 10:41:37;;;;;;;;;7.00;6.67;;;;;5.78;69.37;100918.00;4991417;28;45407;-85
2021/12/03 10:44:32;;;;;;;;;8.00;7.00;;;;;5.80;70.00;100930.34;4993109;28;45641;-85
2021/12/03 10:49:41;;;;;;;;;5.33;5.00;;;;;5.78;70.43;100907.59;4993925;28;45532;-85
2021/12/03 10:52:28;;;;;;;;;10.33;8.00;;;;;5.82;70.54;100905.28;4995172;28;45551;-85
2021/12/03 11:07:45;;;;;;;;;3.67;3.67;;;;;5.62;71.29;100887.44;4991520;28;46121;-85
2021/12/03 11:27:27;;;;;;;;;7.33;2.00;;;;;5.51;71.39;100845.94;4985670;28;45373;-85
2021/12/03 11:40:59;;;;;;;;;4.00;2.00;;;;;5.46;70.95;100805.69;4993898;28;45452;-84
2021/12/03 14:37:31;;;;;;;;;3.00;3.00;;;;;5.77;73.23;100508.13;4881920;29;45814;-87
2021/12/03 14:39:30;;;;;;;;;2.00;2.00;;;;;5.80;73.18;100503.13;4881741;29;46685;-87
2021/12/03 14:52:42;;;;;;;;;2.67;2.67;;;;;5.92;73.39;100489.06;4894913;29;45974;-87
2021/12/03 14:55:09;;;;;;;;;1.67;1.67;;;;;5.95;73.70;100476.22;4961445;28;45527;-87
2021/12/03 14:57:41;;;;;;;;;1.00;1.00;;;;;6.01;73.28;100478.28;4950555;28;45562;-87
2021/12/03 15:00:32;;;;;;;;;1.33;1.00;;;;;6.00;72.65;100477.41;4969715;28;45678;-87
2021/12/03 15:03:12;;;;;;;;;2.67;1.67;;;;;6.01;73.11;100476.56;4970179;28;45584;-87
2021/12/03 15:27:31;;;;;;;;;2.00;2.00;;;;;6.03;73.02;100440.19;4989389;28;45413;-90
2021/12/03 16:04:22;;;;;;;;;1.00;1.00;;;;;6.14;73.10;100396.53;4982359;28;45295;-87
2021/12/03 16:25:24;;;;;;;;;2.33;2.33;;;;;6.31;73.58;100336.66;4986938;28;46235;-86
2021/12/03 16:51:31;;;;;;;;;3.00;1.67;;;;;6.41;72.88;100301.56;4989532;28;45608;-88
2021/12/03 16:54:07;;;;;;;;;1.00;1.00;;;;;6.46;72.60;100294.91;4988946;28;45447;-88
2021/12/03 16:56:35;;;;;;;;;1.33;1.00;;;;;6.44;72.92;100291.31;4981964;28;47191;-87
2021/12/03 16:59:01;;;;;;;;;1.00;1.00;;;;;6.43;73.46;100268.66;4995439;28;45464;-87
2021/12/03 17:45:10;;;;;;;;;6.00;6.00;;;;;6.67;75.39;100221.25;4886309;28;45862;-86
2021/12/03 17:47:36;;;;;;;;;3.00;3.00;;;;;6.68;75.47;100225.63;4904401;28;45548;-86
2021/12/03 17:53:05;;;;;;;;;6.00;6.00;;;;;6.62;75.99;100210.56;4897311;29;45617;-87
2021/12/03 17:58:14;;;;;;;;;7.00;7.00;;;;;6.68;75.64;100200.44;4892821;28;45776;-86
2021/12/03 18:08:40;;;;;;;;;12.33;9.00;;;;;6.64;76.51;100167.22;4917000;28;45650;-88
2021/12/03 18:11:44;;;;;;;;;9.33;9.33;;;;;6.70;76.54;100162.28;4917513;28;45681;-87
2021/12/03 18:17:06;;;;;;;;;12.67;8.67;;;;;6.76;76.68;100153.00;4992864;28;54329;-88
2021/12/03 18:44:12;;;;;;;;;10.67;10.67;;;;;6.97;76.78;100105.31;4950412;28;45971;-87
2021/12/03 18:47:12;;;;;;;;;15.00;15.00;;;;;7.01;76.59;100100.31;4941423;28;45499;-87
2021/12/03 18:52:31;;;;;;;;;16.00;13.67;;;;;6.98;76.81;100089.75;4939957;28;45460;-89
2021/12/03 18:55:11;;;;;;;;;18.33;13.67;;;;;7.08;77.11;100095.44;4944262;28;46686;-87
2021/12/03 18:57:43;;;;;;;;;21.25;20.25;;;;;7.08;77.24;100080.66;4943413;28;45538;-87
2021/12/03 19:00:10;;;;;;;;;24.50;20.50;;;;;7.12;76.98;100090.41;4941087;28;45596;-86
2021/12/03 19:02:39;;;;;;;;;19.00;12.25;;;;;7.19;77.41;100077.69;4946442;28;45509;-88
2021/12/03 19:10:14;;;;;;;;;24.25;22.00;;;;;7.28;77.61;100078.13;4948410;28;45735;-87
2021/12/03 19:12:42;;;;;;;;;30.25;28.25;;;;;7.31;77.32;100065.22;4945378;28;45506;-87
2021/12/03 19:15:10;;;;;;;;;33.00;31.00;;;;;7.34;77.06;100072.31;4957201;28;47611;-88
2021/12/03 19:17:37;;;;;;;;;35.25;27.00;;;;;7.38;77.52;100061.16;4981802;28;45467;-87
2021/12/03 19:20:08;;;;;;;;;25.50;17.50;;;;;7.38;77.32;100048.13;4988885;28;45600;-88
2021/12/03 19:22:33;;;;;;;;;24.00;21.50;;;;;7.46;77.32;100051.09;4982287;28;45480;-88
2021/12/03 19:24:58;;;;;;;;;24.25;23.00;;;;;7.48;77.42;100042.50;4968255;28;46929;-88
2021/12/03 19:27:27;;;;;;;;;24.75;23.00;;;;;7.52;77.40;100055.72;4966715;28;45495;-89
2021/12/03 19:29:54;;;;;;;;;17.50;16.00;;;;;7.50;77.22;100039.94;4989512;28;45721;-88
2021/12/03 19:32:26;;;;;;;;;12.33;10.00;;;;;7.52;77.22;100040.03;4986808;28;45441;-87
2021/12/03 19:34:52;;;;;;;;;12.00;10.67;;;;;7.48;76.81;100028.53;4971172;28;47363;-87
2021/12/03 19:37:18;;;;;;;;;12.33;11.00;;;;;7.50;77.31;100016.44;4969981;28;45891;-87
2021/12/03 19:39:43;;;;;;;;;11.00;11.00;;;;;7.54;77.05;100026.22;4988814;28;46740;-88
2021/12/03 19:42:15;;;;;;;;;13.00;12.67;;;;;7.52;77.65;100013.91;4988049;28;45512;-89
2021/12/03 19:44:45;;;;;;;;;17.00;17.00;;;;;7.54;77.54;100009.66;4977637;28;47342;-88
2021/12/03 19:47:13;;;;;;;;;11.00;9.67;;;;;7.54;77.36;100002.72;4973665;28;45742;-88
2021/12/03 19:49:47;;;;;;;;;24.00;18.00;;;;;7.62;78.02;99997.84;4973763;28;45375;-89
2021/12/03 19:52:24;;;;;;;;;12.67;10.67;;;;;7.66;77.48;100011.94;4979792;28;45468;-89
2021/12/03 19:54:50;;;;;;;;;15.00;14.33;;;;;7.63;77.35;99996.13;4988902;28;48327;-88
2021/12/03 19:57:15;;;;;;;;;12.00;11.00;;;;;7.68;77.54;99995.50;4987426;28;45389;-89
2021/12/03 19:59:41;;;;;;;;;19.50;16.50;;;;;7.67;77.39;99985.88;4969724;28;45513;-89
2021/12/03 20:02:07;;;;;;;;;18.75;16.00;;;;;7.73;77.96;99982.63;4971160;28;45543;-88
2021/12/03 20:04:32;;;;;;;;;18.25;16.75;;;;;7.71;78.06;99971.22;4986189;28;45716;-87
2021/12/03 20:07:00;;;;;;;;;17.75;16.50;;;;;7.76;77.67;99971.44;4967794;28;45792;-88
2021/12/03 20:09:34;;;;;;;;;21.75;21.75;;;;;7.80;77.98;99963.81;4984840;28;45423;-88
2021/12/03 20:12:06;;;;;;;;;11.33;11.00;;;;;7.82;77.93;99959.53;4966755;28;45566;-88
2021/12/03 20:14:31;;;;;;;;;14.33;13.00;;;;;7.87;77.99;99953.63;4970042;28;46646;-89
2021/12/03 20:16:59;;;;;;;;;11.67;8.00;;;;;7.89;77.90;99950.25;4975747;28;45561;-89
2021/12/03 20:21:55;;;;;;;;;12.00;11.00;;;;;7.97;78.22;99952.28;4989576;28;45734;-88
2021/12/03 20:24:30;;;;;;;;;9.33;7.67;;;;;8.01;78.05;99941.16;4994458;28;46187;-89
2021/12/03 20:27:11;;;;;;;;;8.33;8.33;;;;;8.00;78.27;99940.25;4970575;28;45581;-89
2021/12/03 20:32:15;;;;;;;;;12.33;12.33;;;;;8.10;78.23;99935.41;4978852;28;45573;-89
2021/12/03 22:57:17;;;;;;;;;7.67;7.67;;;;;9.68;83.43;99629.69;5492687;23;45397;-96
2021/12/03 22:59:59;;;;;;;;;7.00;5.00;;;;;9.79;84.87;99627.38;5038885;28;47572;-96
2021/12/03 23:02:36;;;;;;;;;7.67;7.67;;;;;9.78;85.22;99616.84;5025072;28;44802;-96
2021/12/03 23:05:14;;;;;;;;;7.67;4.00;;;;;9.81;85.38;99610.00;5043733;28;44865;-96
2021/12/03 23:07:44;;;;;;;;;5.67;4.00;;;;;9.82;85.69;99595.13;5027437;28;44868;-96
2021/12/03 23:15:50;;;;;;;;;6.67;4.67;;;;;9.92;86.12;99575.34;4999180;28;44899;-96
2021/12/03 23:18:26;;;;;;;;;3.00;3.00;;;;;9.94;86.12;99574.56;4985399;28;44792;-96
2021/12/03 23:34:19;;;;;;;;;3.67;2.67;;;;;10.26;87.15;99576.28;5001329;28;44634;-94
2021/12/03 23:36:46;;;;;;;;;3.00;2.67;;;;;10.14;87.28;99540.13;4970837;28;44827;-96
2021/12/03 23:39:13;;;;;;;;;4.00;4.00;;;;;10.21;87.51;99541.19;4982027;28;44924;-96
2021/12/03 23:41:38;;;;;;;;;5.00;5.00;;;;;10.31;87.43;99552.81;4984786;28;46952;-95
2021/12/03 23:44:06;;;;;;;;;10.00;10.00;;;;;10.20;87.53;99520.16;5071848;22;45646;-96
2021/12/03 23:46:31;;;;;;;;;2.00;2.00;;;;;10.42;87.80;99553.09;5004009;28;45311;-96
2021/12/03 23:48:59;;;;;;;;;2.00;2.00;;;;;10.35;87.72;99535.44;5004187;28;44894;-96
2021/12/03 23:51:26;;;;;;;;;1.00;1.00;;;;;10.34;87.83;99515.28;4996977;28;47144;-96
2021/12/03 23:53:54;;;;;;;;;2.00;2.00;;;;;10.19;88.21;99487.81;4999024;28;44786;-96
2021/12/03 23:56:20;;;;;;;;;2.33;2.33;;;;;10.50;88.20;99529.69;4993635;28;44748;-96
2021/12/03 23:58:50;;;;;;;;;1.67;1.67;;;;;10.53;88.33;99515.78;5006494;28;45627;-96
